createdAt,value
2022-10-22T00:00:33.647Z,11.96
2022-10-22T00:02:36.756Z,11.95
2022-10-22T00:04:39.488Z,11.92
2022-10-22T00:06:42.697Z,11.81
2022-10-22T00:08:45.374Z,11.80
2022-10-22T00:10:49.494Z,11.75
2022-10-22T00:12:52.167Z,11.76
2022-10-22T00:14:54.840Z,11.69
2022-10-22T00:17:00.879Z,11.70
2022-10-22T00:19:03.934Z,11.71
2022-10-22T00:21:07.648Z,11.72
2022-10-22T00:23:10.274Z,11.80
2022-10-22T00:25:12.954Z,11.78
2022-10-22T00:27:16.952Z,11.81
2022-10-22T00:29:20.067Z,11.79
2022-10-22T00:31:22.723Z,11.81
2022-10-22T00:33:25.600Z,11.93
2022-10-22T00:35:28.343Z,11.82
2022-10-22T00:37:31.126Z,12.09
2022-10-22T00:39:33.850Z,12.19
2022-10-22T00:41:36.463Z,12.10
2022-10-22T00:43:56.602Z,11.90
2022-10-22T00:45:59.264Z,11.88
2022-10-22T00:48:06.300Z,11.88
2022-10-22T00:50:12.608Z,11.85
2022-10-22T00:52:15.597Z,12.05
2022-10-22T00:54:18.235Z,12.06
2022-10-22T00:56:21.329Z,11.88
2022-10-22T00:58:26.787Z,11.81
2022-10-22T01:00:30.858Z,11.88
2022-10-22T01:02:33.836Z,11.81
2022-10-22T01:04:36.428Z,11.94
2022-10-22T01:06:39.057Z,11.82
2022-10-22T01:08:47.941Z,11.76
2022-10-22T01:10:57.962Z,11.80
2022-10-22T01:13:13.825Z,11.71
2022-10-22T01:15:26.128Z,11.93
2022-10-22T01:17:35.178Z,12.13
2022-10-22T01:19:51.269Z,11.96
2022-10-22T01:21:59.646Z,11.83
2022-10-22T01:24:29.399Z,11.76
2022-10-22T01:26:44.850Z,11.76
2022-10-22T01:28:58.237Z,11.70
2022-10-22T01:31:00.781Z,11.97
2022-10-22T01:33:07.613Z,11.80
2022-10-22T01:35:13.339Z,11.76
2022-10-22T01:37:19.769Z,11.78
2022-10-22T01:39:24.117Z,11.73
2022-10-22T01:45:45.378Z,11.92
2022-10-22T01:47:57.314Z,11.98
2022-10-22T01:50:14.592Z,11.96
2022-10-22T01:52:29.026Z,11.87
2022-10-22T01:54:38.910Z,12.04
2022-10-22T01:56:57.506Z,12.13
2022-10-22T01:59:08.448Z,12.06
2022-10-22T02:01:22.277Z,12.03
2022-10-22T02:03:31.188Z,11.83
2022-10-22T02:05:38.428Z,11.74
2022-10-22T02:07:45.162Z,11.67
2022-10-22T02:09:48.886Z,11.67
2022-10-22T02:11:52.801Z,11.94
2022-10-22T02:13:59.430Z,11.96
2022-10-22T02:16:04.248Z,11.87
2022-10-22T02:18:10.656Z,11.81
2022-10-22T02:20:19.168Z,11.73
2022-10-22T02:22:22.011Z,11.71
2022-10-22T02:24:25.408Z,11.66
2022-10-22T02:26:32.622Z,11.63
2022-10-22T02:28:40.360Z,11.87
2022-10-22T02:30:47.492Z,11.72
2022-10-22T02:32:55.868Z,11.66
2022-10-22T02:35:01.567Z,11.59
2022-10-22T02:37:04.836Z,11.55
2022-10-22T02:39:10.858Z,11.59
2022-10-22T02:41:13.695Z,11.57
2022-10-22T02:43:16.312Z,11.51
2022-10-22T02:45:20.227Z,11.90
2022-10-22T02:47:22.881Z,11.99
2022-10-22T02:49:25.492Z,11.77
2022-10-22T02:51:29.441Z,11.63
2022-10-22T02:53:32.085Z,11.60
2022-10-22T02:55:34.709Z,11.53
2022-10-22T02:57:37.697Z,11.68
2022-10-22T02:59:40.569Z,11.55
2022-10-22T03:01:43.202Z,11.48
2022-10-22T03:03:45.836Z,11.62
2022-10-22T03:05:48.502Z,11.47
2022-10-22T03:07:52.476Z,11.44
2022-10-22T03:09:55.058Z,11.45
2022-10-22T03:11:57.685Z,11.91
2022-10-22T03:14:00.302Z,11.65
2022-10-22T03:16:03.086Z,11.49
2022-10-22T03:18:05.820Z,11.61
2022-10-22T03:20:09.445Z,11.63
2022-10-22T03:22:16.640Z,11.51
2022-10-22T03:24:25.157Z,11.66
2022-10-22T03:26:27.839Z,11.71
2022-10-22T03:28:30.708Z,11.70
2022-10-22T03:30:33.322Z,11.73
2022-10-22T03:32:35.934Z,11.68
2022-10-22T03:34:38.546Z,11.61
2022-10-22T03:36:42.115Z,11.44
2022-10-22T03:38:44.984Z,11.37
2022-10-22T03:40:49.381Z,11.42
2022-10-22T03:42:52.000Z,11.39
2022-10-22T03:44:54.739Z,11.47
2022-10-22T03:47:00.076Z,11.42
2022-10-22T03:49:05.277Z,11.21
2022-10-22T03:51:08.514Z,11.14
2022-10-22T03:53:11.418Z,11.15
2022-10-22T03:55:14.046Z,11.31
2022-10-22T03:57:18.155Z,11.25
2022-10-22T03:59:20.836Z,11.17
2022-10-22T04:01:23.654Z,11.50
2022-10-22T04:03:26.327Z,11.45
2022-10-22T04:05:28.985Z,11.42
2022-10-22T04:07:31.660Z,11.39
2022-10-22T04:09:35.024Z,11.36
2022-10-22T04:11:37.642Z,11.32
2022-10-22T04:13:42.089Z,11.42
2022-10-22T04:17:52.168Z,11.89
2022-10-22T04:19:54.763Z,11.87
2022-10-22T04:21:59.068Z,11.94
2022-10-22T04:24:01.742Z,12.02
2022-10-22T04:26:06.796Z,11.92
2022-10-22T04:28:10.267Z,11.99
2022-10-22T04:30:15.234Z,11.80
2022-10-22T04:32:17.828Z,11.87
2022-10-22T04:34:20.419Z,11.82
2022-10-22T04:36:23.265Z,11.80
2022-10-22T04:38:25.870Z,11.88
2022-10-22T04:40:28.496Z,12.19
2022-10-22T04:42:31.148Z,12.15
2022-10-22T04:44:34.010Z,12.21
2022-10-22T04:46:38.014Z,12.30
2022-10-22T04:48:42.581Z,12.28
2022-10-22T04:50:45.184Z,12.39
2022-10-22T04:52:47.866Z,12.22
2022-10-22T04:54:50.543Z,12.14
2022-10-22T04:56:53.134Z,12.39
2022-10-22T04:58:57.723Z,12.33
2022-10-22T05:01:00.410Z,12.34
2022-10-22T05:03:04.504Z,12.25
2022-10-22T05:05:07.422Z,12.28
2022-10-22T05:07:10.053Z,12.19
2022-10-22T05:09:15.265Z,12.12
2022-10-22T05:11:20.371Z,12.34
2022-10-22T05:13:23.015Z,12.28
2022-10-22T05:15:25.598Z,12.52
2022-10-22T05:17:28.253Z,12.35
2022-10-22T05:19:33.259Z,12.29
2022-10-22T05:21:36.318Z,12.33
2022-10-22T05:23:39.722Z,12.34
2022-10-22T05:25:42.330Z,12.45
2022-10-22T05:27:44.998Z,12.43
2022-10-22T05:29:47.618Z,12.60
2022-10-22T05:31:50.597Z,12.58
2022-10-22T05:33:53.237Z,12.34
2022-10-22T05:35:57.410Z,12.45
2022-10-22T05:38:00.044Z,12.43
2022-10-22T05:40:18.896Z,12.50
2022-10-22T05:42:25.286Z,12.39
2022-10-22T05:44:27.942Z,12.22
2022-10-22T05:46:33.965Z,12.21
2022-10-22T05:48:36.805Z,12.22
2022-10-22T05:50:40.291Z,12.25
2022-10-22T05:52:44.233Z,12.21
2022-10-22T05:54:46.900Z,12.31
2022-10-22T05:56:49.838Z,12.15
2022-10-22T05:58:53.008Z,12.10
2022-10-22T06:00:55.741Z,12.08
2022-10-22T06:02:58.373Z,12.27
2022-10-22T06:05:01.100Z,12.46
2022-10-22T06:07:04.053Z,12.30
2022-10-22T06:09:14.461Z,12.17
2022-10-22T06:11:18.403Z,12.24
2022-10-22T06:13:20.994Z,12.26
2022-10-22T06:15:23.630Z,12.28
2022-10-22T06:17:26.232Z,12.28
2022-10-22T06:19:31.094Z,11.98
2022-10-22T06:21:33.883Z,12.19
2022-10-22T06:23:37.368Z,12.19
2022-10-22T06:25:41.544Z,12.15
2022-10-22T06:27:44.206Z,12.20
2022-10-22T06:29:46.798Z,12.10
2022-10-22T06:31:49.550Z,12.08
2022-10-22T06:33:52.151Z,12.13
2022-10-22T06:35:55.122Z,12.11
2022-10-22T06:37:57.696Z,12.08
2022-10-22T06:40:00.311Z,12.03
2022-10-22T06:42:04.340Z,12.06
2022-10-22T06:44:06.968Z,12.04
2022-10-22T06:46:13.706Z,12.03
2022-10-22T06:48:18.747Z,12.24
2022-10-22T06:50:21.389Z,12.28
2022-10-22T06:52:23.963Z,12.35
2022-10-22T06:54:26.584Z,12.27
2022-10-22T06:56:30.185Z,12.33
2022-10-22T06:58:34.210Z,12.51
2022-10-22T07:00:36.744Z,12.59
2022-10-22T07:02:39.782Z,12.60
2022-10-22T07:04:43.558Z,12.61
2022-10-22T07:06:46.183Z,12.61
2022-10-22T07:08:48.928Z,12.61
2022-10-22T07:10:51.613Z,12.75
2022-10-22T07:12:54.232Z,12.91
2022-10-22T07:14:58.201Z,12.98
2022-10-22T07:17:00.816Z,13.05
2022-10-22T07:19:04.876Z,13.19
2022-10-22T07:21:08.801Z,13.30
2022-10-22T07:23:11.407Z,13.44
2022-10-22T07:25:14.073Z,13.61
2022-10-22T07:27:16.703Z,13.70
2022-10-22T07:29:19.297Z,13.87
2022-10-22T07:31:23.729Z,13.91
2022-10-22T07:33:26.857Z,14.07
2022-10-22T07:35:29.497Z,14.28
2022-10-22T07:37:32.082Z,14.41
2022-10-22T07:39:34.707Z,14.45
2022-10-22T07:41:37.321Z,14.44
2022-10-22T07:43:39.971Z,14.40
2022-10-22T07:45:42.601Z,14.32
2022-10-22T07:47:48.231Z,14.21
2022-10-22T07:49:50.849Z,14.13
2022-10-22T07:51:53.455Z,14.03
2022-10-22T07:53:56.127Z,13.93
2022-10-22T07:55:58.857Z,13.95
2022-10-22T07:58:14.545Z,14.05
2022-10-22T08:00:20.478Z,14.18
2022-10-22T08:02:26.163Z,14.26
2022-10-22T08:04:30.155Z,14.31
2022-10-22T08:06:32.804Z,14.40
2022-10-22T08:08:35.618Z,14.42
2022-10-22T08:10:38.337Z,14.60
2022-10-22T08:12:42.395Z,14.68
2022-10-22T08:14:45.140Z,14.81
2022-10-22T08:16:47.830Z,14.89
2022-10-22T08:18:51.770Z,15.04
2022-10-22T08:20:55.847Z,15.16
2022-10-22T08:22:59.335Z,15.28
2022-10-22T08:25:01.967Z,15.34
2022-10-22T08:27:04.703Z,15.45
2022-10-22T08:29:07.960Z,15.49
2022-10-22T08:31:11.721Z,15.45
2022-10-22T08:33:14.356Z,15.32
2022-10-22T08:35:17.785Z,15.26
2022-10-22T08:37:21.869Z,15.50
2022-10-22T08:39:24.773Z,15.84
2022-10-22T08:41:27.519Z,15.96
2022-10-22T08:43:46.299Z,15.96
2022-10-22T08:45:59.061Z,16.08
2022-10-22T08:48:21.041Z,16.19
2022-10-22T08:50:30.972Z,16.23
2022-10-22T08:52:36.970Z,16.12
2022-10-22T08:54:50.270Z,16.27
2022-10-22T08:57:05.909Z,16.12
2022-10-22T08:59:16.307Z,16.01
2022-10-22T09:01:24.009Z,16.18
2022-10-22T09:03:35.307Z,16.20
2022-10-22T09:05:47.811Z,16.38
2022-10-22T09:07:53.058Z,16.45
2022-10-22T09:09:59.328Z,16.32
2022-10-22T09:12:03.446Z,16.18
2022-10-22T09:14:07.148Z,15.91
2022-10-22T09:16:16.410Z,15.86
2022-10-22T09:18:34.130Z,15.82
2022-10-22T09:20:44.268Z,15.75
2022-10-22T09:23:00.981Z,15.56
2022-10-22T09:25:17.214Z,15.46
2022-10-22T09:27:23.594Z,15.46
2022-10-22T09:29:33.137Z,15.52
2022-10-22T09:31:36.028Z,15.46
2022-10-22T09:33:38.716Z,15.36
2022-10-22T09:35:47.560Z,15.30
2022-10-22T09:37:52.298Z,15.27
2022-10-22T09:39:58.867Z,15.36
2022-10-22T09:42:02.025Z,15.40
2022-10-22T09:44:08.607Z,15.32
2022-10-22T09:46:17.840Z,15.23
2022-10-22T09:48:26.365Z,15.37
2022-10-22T09:50:31.326Z,15.41
2022-10-22T09:52:35.493Z,15.58
2022-10-22T09:54:43.379Z,15.73
2022-10-22T09:56:53.218Z,15.99
2022-10-22T09:58:57.712Z,16.00
2022-10-22T10:01:02.116Z,16.14
2022-10-22T10:03:05.085Z,16.31
2022-10-22T10:05:09.674Z,16.39
2022-10-22T10:07:20.526Z,16.65
2022-10-22T10:09:25.666Z,16.55
2022-10-22T10:11:33.590Z,16.61
2022-10-22T10:13:47.926Z,16.92
2022-10-22T10:15:57.237Z,16.64
2022-10-22T10:18:10.865Z,16.72
2022-10-22T10:20:27.852Z,16.78
2022-10-22T10:22:46.766Z,16.57
2022-10-22T10:25:05.036Z,16.32
2022-10-22T10:27:16.030Z,16.17
2022-10-22T10:29:33.474Z,16.21
2022-10-22T10:31:46.177Z,16.14
2022-10-22T10:33:56.830Z,16.03
2022-10-22T10:36:05.112Z,15.94
2022-10-22T10:38:20.857Z,15.84
2022-10-22T10:40:29.536Z,15.83
2022-10-22T10:42:37.688Z,15.83
2022-10-22T10:44:52.325Z,15.70
2022-10-22T10:47:04.537Z,15.66
2022-10-22T10:49:11.371Z,15.61
2022-10-22T10:51:27.315Z,15.64
2022-10-22T10:53:41.180Z,15.60
2022-10-22T10:55:55.671Z,15.64
2022-10-22T10:58:11.173Z,15.59
2022-10-22T11:00:19.678Z,15.70
2022-10-22T11:02:44.931Z,15.62
2022-10-22T11:05:04.449Z,15.51
2022-10-22T11:07:23.370Z,15.40
2022-10-22T11:09:40.877Z,15.37
2022-10-22T11:11:48.366Z,15.40
2022-10-22T11:13:56.762Z,15.50
2022-10-22T11:16:07.490Z,15.64
2022-10-22T11:18:16.868Z,15.87
2022-10-22T11:20:23.428Z,16.18
2022-10-22T11:22:30.506Z,16.11
2022-10-22T11:24:40.221Z,16.17
2022-10-22T11:26:47.782Z,16.32
2022-10-22T11:28:54.631Z,16.52
2022-10-22T11:31:03.854Z,16.39
2022-10-22T11:33:11.052Z,16.22
2022-10-22T11:35:16.952Z,16.27
2022-10-22T11:37:20.074Z,16.55
2022-10-22T11:39:34.221Z,16.77
2022-10-22T11:41:37.310Z,16.71
2022-10-22T11:43:58.400Z,16.77
2022-10-22T11:46:27.372Z,16.73
2022-10-22T11:48:37.236Z,16.73
2022-10-22T11:50:50.606Z,17.00
2022-10-22T11:53:02.893Z,16.72
2022-10-22T11:55:31.426Z,16.69
2022-10-22T11:57:39.482Z,16.96
2022-10-22T11:59:49.570Z,17.11
2022-10-22T12:01:57.377Z,16.85
2022-10-22T12:04:21.976Z,16.88
2022-10-22T12:06:25.969Z,16.90
2022-10-22T12:08:28.740Z,17.13
2022-10-22T12:10:49.560Z,17.07
2022-10-22T12:12:58.463Z,16.78
2022-10-22T12:15:02.769Z,16.54
2022-10-22T12:17:12.262Z,16.68
2022-10-22T12:19:17.914Z,16.71
2022-10-22T12:21:20.716Z,16.51
2022-10-22T12:23:30.347Z,16.50
2022-10-22T12:25:35.646Z,16.40
2022-10-22T12:27:40.821Z,16.38
2022-10-22T12:29:43.928Z,16.63
2022-10-22T12:31:48.442Z,16.71
2022-10-22T12:33:58.784Z,16.94
2022-10-22T12:36:04.119Z,17.05
2022-10-22T12:38:15.897Z,17.18
2022-10-22T12:40:21.584Z,16.77
2022-10-22T12:42:24.205Z,17.00
2022-10-22T12:44:26.969Z,16.82
2022-10-22T12:46:33.096Z,16.77
2022-10-22T12:48:41.272Z,16.75
2022-10-22T12:50:49.301Z,16.61
2022-10-22T12:52:55.250Z,16.63
2022-10-22T12:54:58.049Z,16.56
2022-10-22T12:57:01.391Z,16.47
2022-10-22T12:59:08.833Z,16.43
2022-10-22T13:01:12.870Z,16.52
2022-10-22T13:03:27.643Z,16.59
2022-10-22T13:05:38.960Z,16.76
2022-10-22T13:07:47.701Z,16.54
2022-10-22T13:09:59.333Z,16.60
2022-10-22T13:12:05.905Z,16.62
2022-10-22T13:14:21.341Z,16.87
2022-10-22T13:16:27.836Z,16.80
2022-10-22T13:18:34.657Z,16.87
2022-10-22T13:20:38.422Z,16.84
2022-10-22T13:22:53.447Z,16.98
2022-10-22T13:24:58.933Z,17.10
2022-10-22T13:27:01.672Z,17.30
2022-10-22T13:29:11.868Z,17.12
2022-10-22T13:31:18.756Z,17.18
2022-10-22T13:33:23.797Z,17.24
2022-10-22T13:35:29.183Z,17.14
2022-10-22T13:37:35.586Z,16.78
2022-10-22T13:39:39.548Z,16.62
2022-10-22T13:41:42.302Z,16.68
2022-10-22T13:43:45.003Z,16.51
2022-10-22T13:45:49.926Z,16.47
2022-10-22T13:47:54.648Z,16.38
2022-10-22T13:50:01.209Z,16.42
2022-10-22T13:52:05.266Z,16.33
2022-10-22T13:54:14.671Z,16.34
2022-10-22T13:56:20.604Z,16.51
2022-10-22T13:58:25.161Z,16.29
2022-10-22T14:00:28.046Z,16.35
2022-10-22T14:02:31.254Z,16.36
2022-10-22T14:04:37.065Z,16.33
2022-10-22T14:06:39.741Z,16.28
2022-10-22T14:08:43.437Z,16.30
2022-10-22T14:10:46.328Z,16.28
2022-10-22T14:12:53.310Z,16.28
2022-10-22T14:17:00.117Z,16.23
2022-10-22T14:19:03.923Z,16.15
2022-10-22T14:21:07.706Z,16.04
2022-10-22T14:25:22.310Z,16.10
2022-10-22T14:27:25.532Z,15.96
2022-10-22T14:29:30.254Z,16.04
2022-10-22T14:31:33.335Z,16.17
2022-10-22T14:33:36.082Z,16.08
2022-10-22T14:35:38.756Z,15.98
2022-10-22T14:37:41.973Z,15.93
2022-10-22T14:39:46.626Z,16.00
2022-10-22T14:41:49.365Z,15.97
2022-10-22T14:43:55.298Z,15.97
2022-10-22T14:45:59.411Z,15.84
2022-10-22T14:48:02.274Z,15.87
2022-10-22T14:50:06.616Z,15.97
2022-10-22T14:52:11.716Z,16.00
2022-10-22T14:54:18.346Z,15.87
2022-10-22T14:56:22.196Z,15.73
2022-10-22T14:58:25.011Z,15.72
2022-10-22T15:00:28.238Z,15.83
2022-10-22T15:02:32.426Z,15.85
2022-10-22T15:04:35.059Z,15.92
2022-10-22T15:06:38.200Z,15.84
2022-10-22T15:08:40.954Z,15.74
2022-10-22T15:10:43.728Z,15.66
2022-10-22T15:12:46.651Z,15.76
2022-10-22T15:14:49.570Z,15.81
2022-10-22T15:16:52.252Z,15.74
2022-10-22T15:18:57.097Z,15.63
2022-10-22T15:21:01.255Z,15.49
2022-10-22T15:23:03.934Z,15.40
2022-10-22T15:25:09.014Z,15.31
2022-10-22T15:27:13.647Z,15.37
2022-10-22T15:29:16.314Z,15.40
2022-10-22T15:31:43.514Z,15.43
2022-10-22T15:33:46.128Z,15.34
2022-10-22T15:35:50.465Z,15.19
2022-10-22T15:37:53.117Z,15.20
2022-10-22T15:39:55.898Z,15.18
2022-10-22T15:41:59.894Z,15.00
2022-10-22T15:44:02.729Z,15.04
2022-10-22T15:46:14.458Z,14.97
2022-10-22T15:48:17.564Z,14.95
2022-10-22T15:50:20.375Z,14.97
2022-10-22T15:52:25.037Z,14.89
2022-10-22T15:54:31.478Z,14.75
2022-10-22T15:56:34.780Z,14.79
2022-10-22T15:58:37.540Z,14.89
2022-10-22T16:00:40.700Z,14.99
2022-10-22T16:02:43.983Z,14.90
2022-10-22T16:04:47.030Z,14.88
2022-10-22T16:06:52.567Z,14.83
2022-10-22T16:08:59.165Z,14.69
2022-10-22T16:11:02.778Z,14.46
2022-10-22T16:13:05.923Z,14.17
2022-10-22T16:15:09.965Z,13.89
2022-10-22T16:17:13.130Z,13.68
2022-10-22T16:19:18.158Z,13.54
2022-10-22T16:21:22.631Z,13.44
2022-10-22T16:23:25.711Z,13.30
2022-10-22T16:25:30.120Z,13.12
2022-10-22T16:27:33.108Z,13.04
2022-10-22T16:29:38.257Z,12.92
2022-10-22T16:31:43.801Z,12.86
2022-10-22T16:33:50.049Z,12.84
2022-10-22T16:35:53.462Z,12.71
2022-10-22T16:37:57.012Z,12.74
2022-10-22T16:40:03.147Z,12.67
2022-10-22T16:42:10.317Z,12.51
2022-10-22T16:44:13.300Z,12.48
2022-10-22T16:46:16.647Z,12.40
2022-10-22T16:48:19.909Z,12.36
2022-10-22T16:50:23.088Z,12.36
2022-10-22T16:52:26.251Z,12.31
2022-10-22T16:54:29.421Z,12.23
2022-10-22T16:56:32.045Z,12.17
2022-10-22T16:58:36.152Z,12.12
2022-10-22T17:00:38.838Z,12.13
2022-10-22T17:02:41.696Z,12.09
2022-10-22T17:04:44.513Z,11.96
2022-10-22T17:06:47.185Z,11.94
2022-10-22T17:08:50.360Z,11.91
2022-10-22T17:10:53.077Z,11.94
2022-10-22T17:12:55.849Z,11.88
2022-10-22T17:15:00.087Z,11.78
2022-10-22T17:17:02.788Z,11.81
2022-10-22T17:19:05.717Z,11.69
2022-10-22T17:21:10.227Z,11.70
2022-10-22T17:23:13.055Z,11.71
2022-10-22T17:25:18.109Z,11.70
2022-10-22T17:27:20.895Z,11.71
2022-10-22T17:29:25.311Z,11.96
2022-10-22T17:31:32.425Z,11.83
2022-10-22T17:33:36.656Z,11.72
2022-10-22T17:35:41.745Z,11.62
2022-10-22T17:37:44.730Z,11.78
2022-10-22T17:39:47.857Z,11.87
2022-10-22T17:41:50.979Z,11.73
2022-10-22T17:43:54.227Z,11.77
2022-10-22T17:46:04.999Z,11.68
2022-10-22T17:48:09.110Z,11.52
2022-10-22T17:53:30.764Z,11.42
2022-10-22T17:55:34.794Z,11.46
2022-10-22T17:57:37.466Z,11.50
2022-10-22T18:03:48.584Z,11.32
2022-10-22T18:05:51.253Z,11.45
2022-10-22T18:07:55.718Z,11.50
2022-10-22T18:09:58.438Z,11.46
2022-10-22T18:12:01.447Z,11.40
2022-10-22T18:14:05.071Z,11.44
2022-10-22T18:16:08.102Z,11.59
2022-10-22T18:18:10.734Z,11.49
2022-10-22T18:20:14.969Z,11.35
2022-10-22T18:22:17.567Z,11.22
2022-10-22T18:24:20.267Z,11.16
2022-10-22T18:26:26.017Z,11.29
2022-10-22T18:28:29.666Z,11.19
2022-10-22T18:30:32.293Z,11.11
2022-10-22T18:32:35.501Z,11.39
2022-10-22T18:34:38.198Z,11.55
2022-10-22T18:36:42.544Z,11.34
2022-10-22T18:38:45.128Z,11.31
2022-10-22T18:40:47.779Z,11.30
2022-10-22T18:42:50.746Z,11.31
2022-10-22T18:44:53.399Z,11.39
2022-10-22T18:46:56.091Z,11.45
2022-10-22T18:48:59.690Z,11.39
2022-10-22T18:51:04.813Z,11.38
2022-10-22T18:53:09.133Z,11.22
2022-10-22T18:55:12.557Z,11.28
2022-10-22T18:57:15.216Z,11.17
2022-10-22T18:59:20.363Z,11.16
2022-10-22T19:01:24.803Z,11.17
2022-10-22T19:03:27.482Z,11.07
2022-10-22T19:05:30.168Z,11.08
2022-10-22T19:07:32.802Z,11.04
2022-10-22T19:09:36.840Z,11.01
2022-10-22T19:11:39.436Z,11.03
2022-10-22T19:13:43.075Z,10.99
2022-10-22T19:15:45.794Z,10.95
2022-10-22T19:17:48.445Z,10.90
2022-10-22T19:19:51.037Z,10.88
2022-10-22T19:21:56.361Z,10.88
2022-10-22T19:24:00.497Z,10.84
2022-10-22T19:26:06.888Z,10.80
2022-10-22T19:28:09.488Z,10.81
2022-10-22T19:30:12.973Z,10.79
2022-10-22T19:32:16.497Z,10.81
2022-10-22T19:34:19.814Z,10.74
2022-10-22T19:36:25.189Z,10.70
2022-10-22T19:38:29.644Z,10.70
2022-10-22T19:40:32.340Z,10.71
2022-10-22T19:42:37.488Z,10.75
2022-10-22T19:44:40.190Z,10.78
2022-10-22T19:46:42.946Z,10.76
2022-10-22T19:50:59.957Z,10.69
2022-10-22T19:53:03.038Z,10.64
2022-10-22T19:55:06.762Z,10.62
2022-10-22T19:57:09.735Z,10.58
2022-10-22T19:59:15.225Z,10.56
2022-10-22T20:01:19.787Z,10.54
2022-10-22T20:03:23.142Z,10.54
2022-10-22T20:05:25.780Z,10.52
2022-10-22T20:07:29.035Z,10.49
2022-10-22T20:09:31.793Z,10.47
2022-10-22T20:11:34.436Z,10.50
2022-10-22T20:13:37.458Z,10.48
2022-10-22T20:15:41.551Z,10.49
2022-10-22T20:17:45.387Z,10.44
2022-10-22T20:19:48.148Z,10.41
2022-10-22T20:21:50.988Z,10.40
2022-10-22T20:23:56.555Z,10.40
2022-10-22T20:25:59.214Z,10.43
2022-10-22T20:28:01.856Z,10.47
2022-10-22T20:30:05.876Z,10.43
2022-10-22T20:32:10.022Z,10.41
2022-10-22T20:34:12.645Z,10.43
2022-10-22T20:36:21.215Z,10.39
2022-10-22T20:38:23.940Z,10.38
2022-10-22T20:40:27.125Z,10.37
2022-10-22T20:42:29.729Z,10.38
2022-10-22T20:44:32.345Z,10.39
2022-10-22T20:46:35.357Z,10.31
2022-10-22T20:48:39.558Z,10.30
2022-10-22T20:50:42.269Z,10.34
2022-10-22T20:52:44.864Z,10.29
2022-10-22T20:54:48.423Z,10.31
2022-10-22T20:56:51.370Z,10.29
2022-10-22T20:59:04.075Z,10.28
2022-10-22T21:01:12.004Z,10.25
2022-10-22T21:03:15.661Z,10.22
2022-10-22T21:05:19.703Z,10.25
2022-10-22T21:07:22.322Z,10.24
2022-10-22T21:09:25.814Z,10.24
2022-10-22T21:11:28.487Z,10.23
2022-10-22T21:13:33.466Z,10.30
2022-10-22T21:15:36.093Z,10.28
2022-10-22T21:17:40.154Z,10.32
2022-10-22T21:19:42.802Z,10.35
2022-10-22T21:21:46.819Z,10.35
2022-10-22T21:23:51.135Z,10.36
2022-10-22T21:25:55.119Z,10.35
2022-10-22T21:27:57.787Z,10.35
2022-10-22T21:30:00.388Z,10.31
2022-10-22T21:32:03.021Z,10.31
2022-10-22T21:34:05.642Z,10.30
2022-10-22T21:36:09.850Z,10.31
2022-10-22T21:38:13.817Z,10.32
2022-10-22T21:40:16.770Z,10.34
2022-10-22T21:42:19.409Z,10.38
2022-10-22T21:44:22.094Z,10.36
2022-10-22T21:46:26.822Z,10.40
2022-10-22T21:48:29.463Z,10.42
2022-10-22T21:50:32.296Z,10.43
2022-10-22T21:52:34.920Z,10.44
2022-10-22T21:54:39.741Z,10.45
2022-10-22T21:56:42.461Z,10.41
2022-10-22T21:58:45.218Z,10.42
2022-10-22T22:00:54.803Z,10.49
2022-10-22T22:02:57.521Z,10.67
2022-10-22T22:05:00.194Z,10.62
2022-10-22T22:07:02.919Z,10.57
2022-10-22T22:09:06.346Z,10.53
2022-10-22T22:11:17.694Z,10.53
2022-10-22T22:13:24.782Z,10.52
2022-10-22T22:15:28.419Z,10.71
2022-10-22T22:17:31.052Z,10.74
2022-10-22T22:19:33.684Z,10.79
2022-10-22T22:21:39.079Z,10.78
2022-10-22T22:23:43.809Z,10.76
2022-10-22T22:25:46.558Z,10.74
2022-10-22T22:27:50.566Z,10.70
2022-10-22T22:29:55.090Z,10.73
2022-10-22T22:31:57.735Z,10.72
2022-10-22T22:34:01.835Z,10.84
2022-10-22T22:36:04.688Z,11.17
2022-10-22T22:38:07.912Z,11.09
2022-10-22T22:40:12.477Z,10.92
2022-10-22T22:42:15.107Z,10.81
2022-10-22T22:44:19.306Z,10.84
2022-10-22T22:46:21.953Z,11.14
2022-10-22T22:48:24.603Z,11.12
2022-10-22T22:50:27.199Z,11.01
2022-10-22T22:52:29.821Z,10.82
2022-10-22T22:54:32.462Z,10.69
2022-10-22T22:56:35.350Z,10.74
2022-10-22T22:58:40.383Z,10.63
2022-10-22T23:00:44.376Z,10.57
2022-10-22T23:02:46.976Z,10.53
2022-10-22T23:04:49.611Z,10.47
2022-10-22T23:06:52.942Z,10.46
2022-10-22T23:08:56.422Z,10.44
2022-10-22T23:11:03.273Z,10.45
2022-10-22T23:13:05.884Z,10.49
2022-10-22T23:15:09.061Z,10.46
2022-10-22T23:17:13.077Z,10.42
2022-10-22T23:19:17.538Z,10.43
2022-10-22T23:21:22.181Z,10.38
2022-10-22T23:23:24.838Z,10.38
2022-10-22T23:25:27.412Z,10.39
2022-10-22T23:27:30.026Z,10.41
2022-10-22T23:29:35.698Z,10.35
2022-10-22T23:31:39.000Z,10.34
2022-10-22T23:33:43.373Z,10.32
2022-10-22T23:35:46.058Z,10.38
2022-10-22T23:37:48.713Z,10.40
2022-10-22T23:39:51.431Z,10.40
2022-10-22T23:41:54.480Z,10.33
2022-10-22T23:43:57.183Z,10.34
2022-10-22T23:45:59.799Z,10.37
2022-10-22T23:48:02.433Z,10.34
2022-10-22T23:50:07.312Z,10.38
2022-10-22T23:52:09.929Z,10.43
2022-10-22T23:54:15.125Z,10.45
2022-10-22T23:56:19.102Z,10.41
2022-10-22T23:58:21.753Z,10.38
